Time;durP1;ratioP1;P1;durP2;ratioP2;P2;SDS_P1;SDS_P2;PMS_P1;PMS_P2;Temp;Humidity;BMP_temperature;BMP_pressure;BME280_temperature;BME280_humidity;BME280_pressure;Samples;Min_cycle;Max_cycle;Signal;HPM_P1;HPM_P2
2023/09/28 00:01:37;;;;;;;9.43;7.97;;;18.00;1.00;;;;;;5110640;28;20396;-69
2023/09/28 00:04:02;;;;;;;9.18;7.68;;;18.00;1.00;;;;;;5091021;28;20398;-69
2023/09/28 00:06:29;;;;;;;8.98;8.07;;;18.00;1.00;;;;;;5091368;28;20421;-70
2023/09/28 00:08:55;;;;;;;10.32;8.40;;;18.00;1.00;;;;;;5090895;28;20485;-70
2023/09/28 00:11:20;;;;;;;8.90;8.00;;;18.00;1.00;;;;;;5103316;28;20423;-70
2023/09/28 00:13:46;;;;;;;10.27;8.63;;;18.00;1.00;;;;;;5091324;28;20863;-69
2023/09/28 00:16:12;;;;;;;10.73;8.57;;;18.00;1.00;;;;;;5102717;28;20492;-70
2023/09/28 00:18:37;;;;;;;10.00;8.95;;;18.00;1.00;;;;;;5102801;28;20490;-70
2023/09/28 00:21:03;;;;;;;9.50;8.30;;;18.00;1.00;;;;;;5101418;28;20420;-70
2023/09/28 00:23:28;;;;;;;9.77;8.70;;;18.00;1.00;;;;;;5104043;28;20809;-69
2023/09/28 00:25:54;;;;;;;10.63;8.63;;;18.00;1.00;;;;;;5090505;28;20886;-69
2023/09/28 00:28:20;;;;;;;10.25;9.15;;;18.00;1.00;;;;;;5105298;28;20400;-69
2023/09/28 00:30:46;;;;;;;10.27;8.90;;;18.00;1.00;;;;;;5092319;28;20483;-69
2023/09/28 00:33:12;;;;;;;9.87;8.87;;;18.00;1.00;;;;;;5093534;28;20834;-69
2023/09/28 00:35:37;;;;;;;10.38;8.70;;;18.00;1.00;;;;;;5097703;28;20526;-70
2023/09/28 00:38:05;;;;;;;9.53;8.60;;;18.00;1.00;;;;;;5093229;28;20408;-69
2023/09/28 00:40:33;;;;;;;9.60;8.60;;;18.00;1.00;;;;;;5097410;28;20394;-69
2023/09/28 00:43:00;;;;;;;9.30;8.25;;;18.00;1.00;;;;;;5080601;28;20400;-69
2023/09/28 00:45:27;;;;;;;10.55;8.35;;;18.00;1.00;;;;;;5107133;28;20397;-69
2023/09/28 00:47:59;;;;;;;9.90;8.38;;;18.00;1.00;;;;;;5090291;28;20394;-69
2023/09/28 00:50:27;;;;;;;10.30;8.45;;;18.00;1.00;;;;;;5099937;28;20435;-69
2023/09/28 00:52:58;;;;;;;10.83;8.83;;;18.00;1.00;;;;;;5079427;28;20621;-69
2023/09/28 00:55:25;;;;;;;9.73;8.77;;;18.00;1.00;;;;;;5096756;28;20406;-70
2023/09/28 00:57:51;;;;;;;9.27;8.38;;;18.00;1.00;;;;;;5093304;28;20417;-70
2023/09/28 01:00:28;;;;;;;9.90;8.73;;;18.00;1.00;;;;;;5094927;28;20412;-70
2023/09/28 01:02:58;;;;;;;10.27;8.93;;;18.00;1.00;;;;;;5108859;28;20403;-70
2023/09/28 01:05:31;;;;;;;10.67;8.87;;;18.00;1.00;;;;;;5092777;28;20521;-69
2023/09/28 01:08:07;;;;;;;9.38;8.35;;;18.00;1.00;;;;;;5104746;28;20419;-69
2023/09/28 01:10:35;;;;;;;9.55;8.50;;;18.00;1.00;;;;;;5110355;28;20407;-68
2023/09/28 01:13:07;;;;;;;9.57;8.18;;;18.00;1.00;;;;;;5106452;28;20520;-70
2023/09/28 01:15:32;;;;;;;9.27;8.23;;;18.00;1.00;;;;;;5079212;28;20409;-69
2023/09/28 01:17:58;;;;;;;8.75;7.85;;;18.00;1.00;;;;;;5087891;28;20452;-70
2023/09/28 01:20:34;;;;;;;8.90;7.95;;;18.00;1.00;;;;;;5090186;28;20440;-69
2023/09/28 01:23:00;;;;;;;10.37;8.47;;;18.00;1.00;;;;;;5073261;28;20402;-69
2023/09/28 01:25:26;;;;;;;8.85;7.78;;;18.00;1.00;;;;;;5109737;28;20472;-69
2023/09/28 01:27:52;;;;;;;9.63;8.00;;;18.00;1.00;;;;;;5093735;28;20412;-70
2023/09/28 01:30:18;;;;;;;9.80;7.88;;;18.00;1.00;;;;;;5104637;28;20402;-69
2023/09/28 01:32:44;;;;;;;8.68;7.78;;;18.00;1.00;;;;;;5098265;28;20479;-69
2023/09/28 01:35:13;;;;;;;9.32;7.57;;;18.00;1.00;;;;;;5106157;28;20485;-69
2023/09/28 01:38:19;;;;;;;9.20;7.23;;;18.00;1.00;;;;;;5108129;28;20473;-69
2023/09/28 01:40:46;;;;;;;9.45;7.78;;;18.00;1.00;;;;;;5088889;28;20412;-69
2023/09/28 01:43:12;;;;;;;11.00;7.13;;;18.00;1.00;;;;;;5089789;28;20463;-70
2023/09/28 01:45:37;;;;;;;9.43;7.35;;;18.00;1.00;;;;;;5107874;28;20404;-70
2023/09/28 01:48:06;;;;;;;9.30;7.00;;;18.00;1.00;;;;;;5105809;28;20397;-70
2023/09/28 01:50:32;;;;;;;7.63;6.72;;;18.00;1.00;;;;;;5099798;28;20811;-70
2023/09/28 01:52:58;;;;;;;9.93;7.25;;;17.90;1.00;;;;;;5101934;28;20430;-70
2023/09/28 01:55:24;;;;;;;8.75;7.15;;;17.90;1.00;;;;;;5107284;28;20392;-70
2023/09/28 01:57:50;;;;;;;8.97;7.20;;;17.90;1.00;;;;;;5106259;28;20433;-70
2023/09/28 02:00:18;;;;;;;8.57;6.72;;;17.90;1.00;;;;;;5101057;28;20417;-69
2023/09/28 02:02:44;;;;;;;8.50;6.70;;;17.90;1.00;;;;;;5088529;28;20424;-70
2023/09/28 02:05:11;;;;;;;8.52;6.45;;;17.90;1.00;;;;;;5092110;28;20512;-70
2023/09/28 02:07:37;;;;;;;8.25;6.85;;;17.90;1.00;;;;;;5105988;28;20981;-70
2023/09/28 02:10:04;;;;;;;8.90;6.77;;;17.80;1.00;;;;;;5088810;28;20398;-70
2023/09/28 02:12:31;;;;;;;7.72;5.75;;;17.80;1.00;;;;;;5101943;28;20450;-70
2023/09/28 02:14:56;;;;;;;7.80;5.68;;;17.80;1.00;;;;;;5088773;28;20398;-70
2023/09/28 02:17:22;;;;;;;6.35;5.50;;;17.80;1.00;;;;;;5073825;28;20404;-70
2023/09/28 02:19:47;;;;;;;8.93;5.70;;;17.80;1.00;;;;;;5107827;28;20399;-70
2023/09/28 02:22:14;;;;;;;7.78;5.40;;;17.80;1.00;;;;;;5103733;28;20492;-70
2023/09/28 02:24:39;;;;;;;6.28;5.50;;;17.80;1.00;;;;;;5090352;28;20803;-70
2023/09/28 02:27:05;;;;;;;7.07;5.40;;;17.70;1.00;;;;;;5089666;28;20406;-70
2023/09/28 02:29:30;;;;;;;7.77;5.43;;;17.70;1.00;;;;;;5098316;28;20429;-70
2023/09/28 02:31:56;;;;;;;8.50;5.32;;;17.70;1.00;;;;;;5104676;28;21091;-70
2023/09/28 02:34:22;;;;;;;6.57;5.83;;;17.60;1.00;;;;;;5096013;28;20392;-70
2023/09/28 02:36:47;;;;;;;7.87;5.90;;;17.60;1.00;;;;;;5091824;28;20402;-70
2023/09/28 02:39:14;;;;;;;7.63;5.97;;;17.60;1.00;;;;;;5090490;28;20398;-71
2023/09/28 02:41:40;;;;;;;9.20;5.90;;;17.60;1.00;;;;;;5097620;28;20402;-69
2023/09/28 02:44:05;;;;;;;7.70;5.93;;;17.50;1.00;;;;;;5104298;28;20500;-69
2023/09/28 02:46:31;;;;;;;6.93;5.90;;;17.50;1.00;;;;;;5091692;28;20398;-70
2023/09/28 02:48:57;;;;;;;7.63;5.95;;;17.50;1.00;;;;;;5068636;28;20465;-70
2023/09/28 02:51:23;;;;;;;8.83;5.60;;;17.50;1.00;;;;;;5095028;28;20438;-69
2023/09/28 02:53:48;;;;;;;8.43;5.75;;;17.40;1.00;;;;;;5103203;28;20493;-70
2023/09/28 02:56:14;;;;;;;8.82;6.07;;;17.40;1.00;;;;;;5099794;28;20397;-70
2023/09/28 02:58:40;;;;;;;7.00;5.87;;;17.40;1.00;;;;;;5096856;28;21006;-70
2023/09/28 03:01:06;;;;;;;8.63;6.40;;;17.30;1.00;;;;;;5092632;28;20398;-70
2023/09/28 03:03:31;;;;;;;8.97;6.17;;;17.30;1.00;;;;;;5093273;28;20419;-70
2023/09/28 03:05:58;;;;;;;10.05;6.53;;;17.30;1.00;;;;;;5092099;28;20456;-70
2023/09/28 03:08:24;;;;;;;8.60;6.45;;;17.20;1.00;;;;;;5107051;28;20412;-70
2023/09/28 03:10:52;;;;;;;9.00;6.45;;;17.20;1.00;;;;;;5105497;28;20392;-70
2023/09/28 03:13:18;;;;;;;7.97;6.90;;;17.20;1.00;;;;;;5105649;28;20476;-70
2023/09/28 03:15:45;;;;;;;8.18;6.57;;;17.10;1.00;;;;;;5092439;28;20409;-70
2023/09/28 03:18:11;;;;;;;8.50;6.43;;;17.10;1.00;;;;;;5088171;28;20807;-70
2023/09/28 03:20:38;;;;;;;12.57;6.35;;;17.00;1.00;;;;;;5099678;28;20406;-70
2023/09/28 03:23:04;;;;;;;9.77;6.47;;;17.00;1.00;;;;;;5095085;28;20392;-71
2023/09/28 03:25:30;;;;;;;10.27;6.38;;;17.00;1.00;;;;;;5056768;28;20420;-71
2023/09/28 03:27:56;;;;;;;9.38;6.35;;;17.00;1.00;;;;;;5095573;28;20408;-69
2023/09/28 03:30:25;;;;;;;7.95;6.22;;;17.00;1.00;;;;;;5079173;28;20508;-69
2023/09/28 03:32:51;;;;;;;9.48;6.32;;;16.90;1.00;;;;;;5071390;28;20441;-69
2023/09/28 03:35:18;;;;;;;8.80;6.93;;;16.90;1.00;;;;;;5089150;28;20436;-69
2023/09/28 03:37:45;;;;;;;7.90;6.40;;;16.90;1.00;;;;;;5095883;28;20897;-69
2023/09/28 03:40:13;;;;;;;8.38;6.30;;;16.90;1.00;;;;;;5078468;28;20405;-69
2023/09/28 03:42:48;;;;;;;8.60;6.78;;;16.80;1.00;;;;;;5087697;28;20463;-69
2023/09/28 03:45:20;;;;;;;10.25;6.63;;;16.80;1.00;;;;;;5089756;28;20409;-70
2023/09/28 03:47:49;;;;;;;10.43;6.83;;;16.80;1.00;;;;;;5097067;28;20400;-69
2023/09/28 03:50:15;;;;;;;10.05;6.15;;;16.80;1.00;;;;;;5082933;28;20419;-69
2023/09/28 03:52:42;;;;;;;9.53;6.53;;;16.70;1.00;;;;;;5104027;28;20794;-69
2023/09/28 03:55:12;;;;;;;9.25;6.10;;;16.80;1.00;;;;;;5099565;28;20422;-69
2023/09/28 03:57:39;;;;;;;9.27;6.18;;;16.80;1.00;;;;;;5092516;28;20402;-69
2023/09/28 04:00:15;;;;;;;7.88;6.10;;;16.70;1.00;;;;;;5091110;28;20808;-69
2023/09/28 04:02:42;;;;;;;9.02;6.15;;;16.70;1.00;;;;;;5076730;28;20422;-69
2023/09/28 04:05:08;;;;;;;9.35;6.28;;;16.70;1.00;;;;;;5098263;28;20403;-69
2023/09/28 04:07:34;;;;;;;9.80;6.67;;;16.70;1.00;;;;;;5090517;28;20446;-69
2023/09/28 04:10:00;;;;;;;8.73;6.43;;;16.60;1.00;;;;;;5090565;28;20983;-69
2023/09/28 04:12:27;;;;;;;7.55;6.30;;;16.60;1.00;;;;;;5091431;28;20497;-69
2023/09/28 04:14:52;;;;;;;9.43;6.68;;;16.60;1.00;;;;;;5091875;28;20941;-69
2023/09/28 04:17:18;;;;;;;8.73;6.70;;;16.60;1.00;;;;;;5092003;28;20402;-70
2023/09/28 04:19:43;;;;;;;8.07;6.63;;;16.50;1.00;;;;;;5098541;28;21077;-69
2023/09/28 04:22:09;;;;;;;8.10;6.38;;;16.50;1.00;;;;;;5086988;28;20402;-69
2023/09/28 04:24:34;;;;;;;9.30;7.23;;;16.50;1.00;;;;;;5098155;28;20408;-69
2023/09/28 04:27:00;;;;;;;9.90;6.90;;;16.50;1.00;;;;;;5096067;28;20433;-70
2023/09/28 04:29:26;;;;;;;8.83;6.93;;;16.40;2.40;;;;;;5097563;28;20458;-70
2023/09/28 04:31:52;;;;;;;9.18;7.07;;;16.40;3.10;;;;;;5104041;28;20398;-70
2023/09/28 04:34:18;;;;;;;9.75;7.32;;;16.40;3.60;;;;;;5101110;28;20776;-70
2023/09/28 04:36:45;;;;;;;8.23;7.03;;;16.40;4.20;;;;;;5090102;28;20398;-70
2023/09/28 04:39:11;;;;;;;9.52;7.22;;;16.40;5.00;;;;;;5096734;28;20404;-70
2023/09/28 04:41:37;;;;;;;9.13;6.90;;;16.30;6.30;;;;;;5079251;28;20412;-70
2023/09/28 04:44:04;;;;;;;10.25;7.00;;;16.30;7.00;;;;;;5106461;28;20420;-69
2023/09/28 04:46:31;;;;;;;8.93;6.80;;;16.30;7.70;;;;;;5084399;28;20987;-69
2023/09/28 04:48:56;;;;;;;8.13;6.85;;;16.20;9.10;;;;;;5098950;28;20413;-69
2023/09/28 04:51:22;;;;;;;10.87;7.17;;;16.20;10.80;;;;;;5098760;28;20771;-69
2023/09/28 04:53:48;;;;;;;9.00;6.90;;;16.20;11.90;;;;;;5096211;28;20421;-69
2023/09/28 04:56:15;;;;;;;10.63;7.00;;;16.20;12.90;;;;;;5092232;28;20398;-70
2023/09/28 04:58:41;;;;;;;11.32;7.22;;;16.20;14.10;;;;;;5099143;28;20786;-69
2023/09/28 05:01:07;;;;;;;9.03;7.40;;;16.20;14.50;;;;;;5099215;28;20398;-69
2023/09/28 05:03:33;;;;;;;9.00;7.10;;;16.20;15.70;;;;;;5089605;28;20447;-69
2023/09/28 05:05:59;;;;;;;9.88;7.10;;;16.20;16.60;;;;;;5090351;28;20402;-69
2023/09/28 05:08:25;;;;;;;9.43;7.43;;;16.10;16.60;;;;;;5097991;28;20754;-69
2023/09/28 05:10:52;;;;;;;9.50;7.30;;;16.10;17.20;;;;;;5095818;28;20416;-69
2023/09/28 05:13:18;;;;;;;12.77;7.78;;;16.10;19.00;;;;;;5108856;28;20427;-69
2023/09/28 05:15:43;;;;;;;10.57;8.00;;;16.10;19.50;;;;;;5105877;28;20395;-69
2023/09/28 05:18:10;;;;;;;11.87;8.20;;;16.10;20.00;;;;;;5096701;28;20762;-69
2023/09/28 05:20:36;;;;;;;11.30;8.40;;;16.00;21.30;;;;;;5086276;28;20425;-69
2023/09/28 05:23:03;;;;;;;9.70;7.80;;;16.00;22.50;;;;;;5091759;28;20741;-69
2023/09/28 05:25:30;;;;;;;13.20;8.52;;;16.00;23.70;;;;;;5102960;28;20524;-69
2023/09/28 05:27:55;;;;;;;13.25;8.90;;;16.00;24.90;;;;;;5089138;28;20407;-68
2023/09/28 05:30:21;;;;;;;13.00;9.00;;;16.00;25.50;;;;;;5073863;28;20409;-69
2023/09/28 05:32:46;;;;;;;11.07;8.48;;;16.00;25.70;;;;;;5105502;28;20515;-69
2023/09/28 05:35:14;;;;;;;12.50;8.57;;;16.00;27.40;;;;;;5105449;28;20412;-70
2023/09/28 05:37:40;;;;;;;11.93;8.30;;;15.90;27.90;;;;;;5096206;28;20392;-69
2023/09/28 05:40:06;;;;;;;12.10;8.73;;;15.90;28.90;;;;;;5095937;28;20493;-69
2023/09/28 05:42:35;;;;;;;11.80;8.80;;;15.90;30.30;;;;;;5095406;28;20419;-70
2023/09/28 05:45:01;;;;;;;12.32;8.80;;;15.90;31.10;;;;;;5107118;28;20446;-69
2023/09/28 05:47:27;;;;;;;10.50;8.23;;;15.90;31.80;;;;;;5096468;28;20758;-70
2023/09/28 05:49:52;;;;;;;13.40;8.83;;;15.90;34.00;;;;;;5107402;28;20415;-70
2023/09/28 05:52:19;;;;;;;14.23;8.63;;;15.90;34.30;;;;;;5092444;28;20414;-70
2023/09/28 05:54:45;;;;;;;12.75;7.90;;;15.90;35.90;;;;;;5092860;28;20512;-71
2023/09/28 05:57:15;;;;;;;15.98;7.78;;;15.90;36.90;;;;;;5108531;28;20578;-71
2023/09/28 05:59:40;;;;;;;11.75;6.82;;;15.90;37.10;;;;;;5095489;28;20732;-70
2023/09/28 06:02:06;;;;;;;11.03;7.10;;;16.00;38.00;;;;;;5108997;28;20457;-70
2023/09/28 06:04:33;;;;;;;11.75;6.78;;;16.00;41.40;;;;;;5090453;28;20783;-70
2023/09/28 06:06:59;;;;;;;13.25;6.90;;;16.10;41.50;;;;;;5098803;28;20396;-71
2023/09/28 06:09:25;;;;;;;14.98;7.80;;;16.10;40.50;;;;;;5104189;28;20401;-70
2023/09/28 06:11:52;;;;;;;13.70;8.18;;;16.20;41.20;;;;;;5070752;28;20451;-71
2023/09/28 06:14:19;;;;;;;11.93;7.65;;;16.20;41.10;;;;;;5100857;28;20443;-70
2023/09/28 06:16:45;;;;;;;12.35;8.20;;;16.20;41.00;;;;;;5098730;28;20401;-71
2023/09/28 06:19:12;;;;;;;14.57;8.40;;;16.30;40.60;;;;;;5089908;28;20798;-70
2023/09/28 06:21:38;;;;;;;17.20;8.85;;;16.30;40.00;;;;;;5070607;28;20402;-70
2023/09/28 06:24:05;;;;;;;12.40;8.10;;;16.30;39.80;;;;;;5091635;28;20890;-70
2023/09/28 06:26:31;;;;;;;14.77;8.55;;;16.30;40.20;;;;;;5098570;28;20797;-70
2023/09/28 06:28:57;;;;;;;13.20;8.32;;;16.30;40.10;;;;;;5100004;28;20972;-70
2023/09/28 06:31:23;;;;;;;14.63;8.27;;;16.30;42.00;;;;;;5078694;28;20413;-70
2023/09/28 06:33:49;;;;;;;13.93;7.63;;;16.40;41.80;;;;;;5104458;28;20469;-70
2023/09/28 06:36:16;;;;;;;10.13;7.60;;;16.30;41.50;;;;;;5106915;28;20400;-70
2023/09/28 06:38:41;;;;;;;10.90;7.20;;;16.40;43.20;;;;;;5104336;28;20413;-70
2023/09/28 06:41:07;;;;;;;12.60;7.97;;;16.40;41.90;;;;;;5098272;28;20968;-70
2023/09/28 06:43:35;;;;;;;11.33;8.30;;;16.40;42.70;;;;;;5078100;28;20917;-70
2023/09/28 06:46:01;;;;;;;12.83;8.03;;;16.40;43.10;;;;;;5089854;28;20491;-70
2023/09/28 06:48:27;;;;;;;11.50;7.63;;;16.50;42.60;;;;;;5087398;28;20408;-70
2023/09/28 06:50:56;;;;;;;14.80;8.65;;;16.50;41.80;;;;;;5108444;28;20400;-70
2023/09/28 06:53:25;;;;;;;13.77;7.95;;;16.50;42.80;;;;;;5091730;28;20449;-70
2023/09/28 06:55:52;;;;;;;12.27;7.03;;;16.50;42.40;;;;;;5088177;28;20442;-70
2023/09/28 06:58:18;;;;;;;10.38;6.90;;;16.60;44.10;;;;;;5069715;28;20422;-70
2023/09/28 07:00:46;;;;;;;17.40;7.20;;;16.60;44.50;;;;;;5088004;28;20432;-70
2023/09/28 07:03:13;;;;;;;14.00;7.22;;;16.60;44.20;;;;;;5106056;28;20392;-70
2023/09/28 07:05:39;;;;;;;13.77;6.90;;;16.70;43.00;;;;;;5094689;28;20457;-70
2023/09/28 07:08:06;;;;;;;13.30;6.40;;;16.70;42.80;;;;;;5100942;28;20451;-70
2023/09/28 07:10:33;;;;;;;14.52;6.38;;;16.70;42.60;;;;;;5100358;28;20419;-70
2023/09/28 07:13:00;;;;;;;12.95;6.43;;;16.70;42.00;;;;;;5106270;28;21006;-70
2023/09/28 07:15:28;;;;;;;13.45;6.35;;;16.70;41.50;;;;;;5076101;28;20398;-70
2023/09/28 07:17:55;;;;;;;14.52;5.75;;;16.80;40.90;;;;;;5100295;28;20402;-70
2023/09/28 07:20:21;;;;;;;14.27;5.53;;;16.80;40.10;;;;;;5087978;28;20406;-70
2023/09/28 07:22:46;;;;;;;16.00;5.20;;;16.90;39.90;;;;;;5100038;28;20413;-70
2023/09/28 07:25:12;;;;;;;14.10;4.67;;;16.80;38.80;;;;;;5088322;28;20410;-70
2023/09/28 07:27:38;;;;;;;14.82;4.75;;;16.90;37.70;;;;;;5107531;28;20436;-70
2023/09/28 07:30:08;;;;;;;18.63;4.70;;;16.90;33.80;;;;;;5104812;28;20397;-70
2023/09/28 07:32:34;;;;;;;16.42;3.97;;;17.00;32.30;;;;;;5099050;28;20450;-69
2023/09/28 07:35:00;;;;;;;15.37;4.60;;;17.00;29.50;;;;;;5081299;28;20929;-70
2023/09/28 07:37:27;;;;;;;15.93;4.07;;;17.10;27.30;;;;;;5100829;28;20422;-69
2023/09/28 07:39:53;;;;;;;17.55;4.60;;;17.10;25.00;;;;;;5091057;28;20409;-69
2023/09/28 07:42:19;;;;;;;15.73;4.40;;;17.20;23.60;;;;;;5098416;28;20408;-70
2023/09/28 07:44:46;;;;;;;16.13;4.63;;;17.20;21.80;;;;;;5098349;28;20416;-69
2023/09/28 07:47:13;;;;;;;16.90;4.10;;;17.30;20.60;;;;;;5110376;28;20897;-70
2023/09/28 07:49:39;;;;;;;16.42;4.22;;;17.30;18.30;;;;;;5096866;28;20819;-70
2023/09/28 07:52:08;;;;;;;19.83;4.57;;;17.40;15.00;;;;;;5091696;28;20398;-69
2023/09/28 07:54:37;;;;;;;16.10;3.60;;;17.40;13.80;;;;;;5104433;28;20403;-70
2023/09/28 07:57:04;;;;;;;19.17;5.00;;;17.50;11.90;;;;;;5102010;28;20402;-70
2023/09/28 07:59:33;;;;;;;17.95;4.30;;;17.50;11.10;;;;;;5075935;28;20963;-70
2023/09/28 08:01:59;;;;;;;20.63;3.47;;;17.60;7.90;;;;;;5102886;28;20487;-69
2023/09/28 08:04:25;;;;;;;19.90;4.38;;;17.70;7.30;;;;;;5102886;28;20477;-69
2023/09/28 08:06:51;;;;;;;22.65;4.90;;;17.80;8.10;;;;;;5082094;28;21099;-69
2023/09/28 08:09:19;;;;;;;17.63;4.40;;;18.00;8.40;;;;;;5096707;28;20895;-69
2023/09/28 08:11:46;;;;;;;25.25;5.20;;;18.10;6.80;;;;;;5101839;28;20405;-70
2023/09/28 08:14:15;;;;;;;18.75;4.57;;;18.20;1.00;;;;;;5105694;28;20544;-69
2023/09/28 08:16:41;;;;;;;19.98;4.82;;;18.30;1.00;;;;;;5110415;28;20392;-69
2023/09/28 08:19:07;;;;;;;17.35;3.90;;;18.30;1.00;;;;;;5093406;28;20402;-69
2023/09/28 08:21:34;;;;;;;17.10;3.80;;;18.30;1.00;;;;;;5101415;28;20781;-69
2023/09/28 08:23:59;;;;;;;19.80;4.55;;;18.40;1.00;;;;;;5096270;28;20958;-69
2023/09/28 08:26:25;;;;;;;15.40;3.37;;;18.50;1.00;;;;;;5110488;28;20400;-69
2023/09/28 08:28:50;;;;;;;15.25;3.55;;;18.50;1.00;;;;;;5094487;28;20605;-70
2023/09/28 08:31:16;;;;;;;14.77;3.30;;;18.60;1.00;;;;;;5091986;28;20879;-70
2023/09/28 08:33:42;;;;;;;16.13;3.80;;;18.70;1.00;;;;;;5101708;28;20528;-70
2023/09/28 08:36:08;;;;;;;16.40;3.28;;;18.90;1.00;;;;;;5091051;28;20429;-70
2023/09/28 08:38:33;;;;;;;20.52;3.50;;;19.00;1.00;;;;;;5092449;28;20405;-70
2023/09/28 08:41:00;;;;;;;18.13;3.63;;;19.00;1.00;;;;;;5098935;28;20400;-70
2023/09/28 08:43:31;;;;;;;20.00;4.20;;;19.00;1.00;;;;;;5106187;28;20446;-70
2023/09/28 08:46:00;;;;;;;17.42;3.10;;;19.00;1.00;;;;;;5108529;28;20416;-70
2023/09/28 08:48:29;;;;;;;17.87;3.43;;;19.10;1.00;;;;;;5086884;28;20410;-70
2023/09/28 08:51:04;;;;;;;18.05;3.20;;;19.30;1.00;;;;;;5099571;28;20471;-70
2023/09/28 08:53:31;;;;;;;17.13;3.55;;;19.40;1.00;;;;;;5103436;28;20437;-70
2023/09/28 08:55:57;;;;;;;15.18;3.28;;;19.50;99.90;;;;;;5090135;28;20393;-69
2023/09/28 08:58:23;;;;;;;18.60;3.63;;;19.50;99.90;;;;;;5095034;28;20397;-70
2023/09/28 09:00:49;;;;;;;16.77;2.47;;;19.50;99.90;;;;;;5089294;28;20927;-70
2023/09/28 09:03:18;;;;;;;19.63;3.05;;;19.50;99.90;;;;;;5094820;28;20416;-70
2023/09/28 09:05:46;;;;;;;17.73;3.17;;;19.50;99.90;;;;;;5095665;28;20738;-70
2023/09/28 09:08:14;;;;;;;12.77;2.77;;;19.70;99.90;;;;;;5096633;28;21292;-70
2023/09/28 09:10:40;;;;;;;17.42;3.58;;;19.90;15.10;;;;;;5095248;28;20477;-70
2023/09/28 09:13:15;;;;;;;16.05;3.28;;;20.00;99.90;;;;;;5091144;28;20434;-70
2023/09/28 09:15:43;;;;;;;13.57;3.05;;;20.00;99.90;;;;;;5101704;28;20438;-70
2023/09/28 09:18:15;;;;;;;17.80;2.80;;;19.90;99.90;;;;;;5096828;28;21005;-70
2023/09/28 09:20:40;;;;;;;14.05;2.55;;;19.90;98.10;;;;;;5096523;28;20772;-70
2023/09/28 09:23:13;;;;;;;15.47;3.10;;;19.80;36.20;;;;;;5108274;28;20401;-70
2023/09/28 09:25:55;;;;;;;19.92;3.78;;;19.80;99.90;;;;;;5095067;28;20405;-70
2023/09/28 09:28:32;;;;;;;17.92;3.55;;;20.10;19.80;;;;;;5090022;28;20410;-70
2023/09/28 09:30:58;;;;;;;20.20;3.53;;;20.40;1.00;;;;;;5089221;28;20768;-70
2023/09/28 09:33:25;;;;;;;15.37;3.53;;;20.80;1.00;;;;;;5073380;28;20443;-70
2023/09/28 09:35:51;;;;;;;16.95;3.35;;;20.90;68.10;;;;;;5105486;28;20395;-69
2023/09/28 09:38:23;;;;;;;14.57;3.05;;;20.90;99.90;;;;;;5107861;28;20396;-70
2023/09/28 09:41:04;;;;;;;16.58;3.17;;;20.80;99.90;;;;;;5089032;28;21011;-70
2023/09/28 09:43:31;;;;;;;15.35;3.08;;;20.60;99.90;;;;;;5101511;28;20911;-70
2023/09/28 09:45:56;;;;;;;16.65;3.65;;;20.40;99.90;;;;;;5106941;28;20404;-70
2023/09/28 09:48:24;;;;;;;17.87;3.60;;;20.20;13.30;;;;;;5106565;28;20390;-70
2023/09/28 09:50:50;;;;;;;19.10;3.73;;;20.00;99.90;;;;;;5100473;28;20413;-70
2023/09/28 09:53:16;;;;;;;19.13;3.75;;;19.90;99.90;;;;;;5103441;28;20416;-70
2023/09/28 09:55:43;;;;;;;18.37;4.17;;;19.80;99.90;;;;;;5109740;28;20431;-70
2023/09/28 09:58:14;;;;;;;17.63;3.63;;;19.80;74.60;;;;;;5095577;28;20585;-70
2023/09/28 10:00:41;;;;;;;21.38;4.13;;;19.80;1.00;;;;;;5097329;28;20402;-70
2023/09/28 10:03:08;;;;;;;17.35;3.97;;;19.80;35.30;;;;;;5099256;28;20437;-70
2023/09/28 10:05:35;;;;;;;19.60;4.18;;;19.70;99.90;;;;;;5100938;28;20408;-70
2023/09/28 10:08:04;;;;;;;19.02;4.20;;;19.80;1.00;;;;;;5101401;28;20446;-70
2023/09/28 10:10:30;;;;;;;16.70;3.90;;;20.00;30.20;;;;;;5055144;28;20441;-70
2023/09/28 10:12:58;;;;;;;17.90;4.25;;;20.10;45.40;;;;;;5107178;28;20428;-70
2023/09/28 10:15:25;;;;;;;20.13;4.57;;;20.30;1.00;;;;;;5107245;28;20403;-70
2023/09/28 10:17:53;;;;;;;18.10;3.60;;;20.50;99.90;;;;;;5088178;28;20409;-70
2023/09/28 10:20:19;;;;;;;19.40;4.10;;;20.60;1.00;;;;;;5095221;28;20516;-70
2023/09/28 10:22:45;;;;;;;17.95;4.22;;;20.60;99.90;;;;;;5100740;28;20414;-69
2023/09/28 10:25:15;;;;;;;19.70;4.00;;;20.70;1.00;;;;;;5087246;28;20409;-69
2023/09/28 10:27:43;;;;;;;18.30;4.30;;;20.60;1.00;;;;;;5105897;28;20470;-69
2023/09/28 10:30:19;;;;;;;21.38;5.05;;;20.60;99.90;;;;;;5105477;28;20453;-70
2023/09/28 10:32:45;;;;;;;22.05;5.68;;;20.50;99.90;;;;;;5054831;28;20986;-69
2023/09/28 10:35:20;;;;;;;20.25;4.97;;;20.50;99.90;;;;;;5080699;28;20402;-70
2023/09/28 10:38:19;;;;;;;22.83;5.23;;;20.50;99.90;;;;;;5087907;28;20398;-70
2023/09/28 10:41:01;;;;;;;18.43;5.07;;;20.40;99.90;;;;;;5086636;28;20532;-69
2023/09/28 10:43:30;;;;;;;24.45;5.18;;;20.50;99.90;;;;;;5100898;28;20971;-69
2023/09/28 10:45:57;;;;;;;22.00;4.67;;;20.50;99.90;;;;;;5104420;28;20409;-70
2023/09/28 10:48:23;;;;;;;18.48;4.43;;;20.50;99.90;;;;;;5098403;28;20413;-70
2023/09/28 10:50:52;;;;;;;18.75;4.60;;;20.40;99.90;;;;;;5098142;28;20850;-70
2023/09/28 10:53:18;;;;;;;21.27;3.92;;;20.30;1.00;;;;;;5097795;28;20425;-70
2023/09/28 10:55:44;;;;;;;17.73;4.18;;;20.20;1.00;;;;;;5091080;28;20402;-69
2023/09/28 10:58:11;;;;;;;19.45;4.75;;;20.20;99.90;;;;;;5096840;28;20394;-69
2023/09/28 11:00:37;;;;;;;16.57;3.60;;;20.10;1.00;;;;;;5078992;28;20898;-69
2023/09/28 11:03:04;;;;;;;20.17;3.70;;;20.10;23.50;;;;;;5098985;28;20402;-69
2023/09/28 11:05:30;;;;;;;20.63;4.25;;;20.00;99.90;;;;;;5095054;28;20402;-70
2023/09/28 11:07:59;;;;;;;15.73;3.67;;;20.00;99.90;;;;;;5082437;28;20909;-69
2023/09/28 11:10:25;;;;;;;17.02;3.58;;;20.00;99.90;;;;;;5099727;28;20428;-69
2023/09/28 11:12:50;;;;;;;21.07;4.43;;;20.10;99.90;;;;;;5093327;28;20892;-69
2023/09/28 11:15:16;;;;;;;18.75;3.78;;;20.00;99.90;;;;;;5099168;28;20406;-70
2023/09/28 11:17:42;;;;;;;18.33;3.60;;;20.10;99.90;;;;;;5105475;28;20405;-69
2023/09/28 11:20:12;;;;;;;16.40;3.45;;;20.10;48.60;;;;;;5103786;28;20766;-69
2023/09/28 11:22:38;;;;;;;17.13;3.42;;;20.20;99.90;;;;;;5110886;28;20475;-70
2023/09/28 11:25:05;;;;;;;19.10;4.43;;;20.30;99.90;;;;;;5111458;28;20404;-70
2023/09/28 11:27:31;;;;;;;18.85;3.90;;;20.20;70.00;;;;;;5110401;28;20403;-69
2023/09/28 11:29:57;;;;;;;15.60;3.30;;;20.30;99.90;;;;;;5099174;28;20394;-70
2023/09/28 11:32:22;;;;;;;17.88;4.00;;;20.30;99.90;;;;;;5091619;28;20401;-70
2023/09/28 11:34:48;;;;;;;18.23;3.67;;;20.30;99.90;;;;;;5092348;28;20454;-70
2023/09/28 11:37:17;;;;;;;16.98;4.15;;;20.30;99.90;;;;;;5096409;28;20396;-69
2023/09/28 11:39:43;;;;;;;16.95;3.72;;;20.30;99.90;;;;;;5099298;28;20895;-69
2023/09/28 11:42:09;;;;;;;15.05;3.72;;;20.30;28.70;;;;;;5096329;28;20446;-69
2023/09/28 11:44:36;;;;;;;14.53;3.57;;;20.30;1.00;;;;;;5098587;28;20394;-69
2023/09/28 11:47:04;;;;;;;17.88;4.18;;;20.30;1.00;;;;;;5104523;28;20389;-69
2023/09/28 11:49:30;;;;;;;17.80;3.55;;;20.20;99.90;;;;;;5105319;28;20396;-70
2023/09/28 11:51:55;;;;;;;17.33;3.40;;;20.10;99.90;;;;;;5105500;28;20413;-69
2023/09/28 11:54:22;;;;;;;15.73;3.83;;;20.00;99.90;;;;;;5091153;28;20513;-69
2023/09/28 11:56:49;;;;;;;19.48;3.90;;;20.00;99.90;;;;;;5107685;28;20388;-69
2023/09/28 11:59:15;;;;;;;18.00;3.97;;;19.90;99.90;;;;;;5108584;28;20407;-69
2023/09/28 12:01:45;;;;;;;22.20;4.60;;;19.90;1.00;;;;;;5102810;28;20406;-69
2023/09/28 12:04:11;;;;;;;18.40;4.17;;;19.90;99.90;;;;;;5083534;28;20404;-69
2023/09/28 12:06:38;;;;;;;14.30;3.80;;;20.00;99.90;;;;;;5092193;28;20478;-69
2023/09/28 12:09:06;;;;;;;16.00;3.58;;;20.00;99.90;;;;;;5103456;28;20388;-69
2023/09/28 12:11:33;;;;;;;18.63;3.60;;;20.00;99.90;;;;;;5099418;28;20400;-69
2023/09/28 12:13:59;;;;;;;15.93;3.92;;;20.00;99.90;;;;;;5096012;28;20425;-69
2023/09/28 12:16:26;;;;;;;18.67;3.58;;;20.00;99.90;;;;;;5110719;28;20399;-69
2023/09/28 12:18:52;;;;;;;14.68;3.83;;;20.00;99.90;;;;;;5097367;28;20428;-69
2023/09/28 12:21:17;;;;;;;17.98;4.00;;;20.00;1.00;;;;;;5102221;28;20406;-69
2023/09/28 12:23:43;;;;;;;20.92;4.50;;;20.10;7.10;;;;;;5103872;28;20459;-69
2023/09/28 12:26:10;;;;;;;19.60;4.50;;;20.10;98.40;;;;;;5097352;28;20404;-70
2023/09/28 12:28:37;;;;;;;16.17;3.57;;;20.20;99.90;;;;;;5110179;28;20408;-70
2023/09/28 12:31:04;;;;;;;18.15;4.25;;;20.20;99.90;;;;;;5097779;28;20499;-70
2023/09/28 12:33:30;;;;;;;15.50;3.57;;;20.30;99.90;;;;;;5107136;28;20428;-69
2023/09/28 12:35:56;;;;;;;13.95;3.58;;;20.40;58.90;;;;;;5100718;28;20403;-70
2023/09/28 12:38:22;;;;;;;20.10;3.70;;;20.40;1.00;;;;;;5102387;28;20481;-70
2023/09/28 12:40:48;;;;;;;16.67;3.27;;;20.30;99.90;;;;;;5090884;28;20497;-70
2023/09/28 12:43:13;;;;;;;14.85;3.50;;;20.30;99.90;;;;;;5099638;28;20405;-70
2023/09/28 12:45:39;;;;;;;17.53;3.93;;;20.20;99.90;;;;;;5096759;28;20404;-70